sensor_id;sensor_type;location;lat;lon;timestamp;P1;durP1;ratioP1;P2;durP2;ratioP2
63350;SDS011;64988;51.058;17.040;2023-08-21T00:00:07;22.48;;;14.38;;
63350;SDS011;64988;51.058;17.040;2023-08-21T00:05:37;25.17;;;13.95;;
63350;SDS011;64988;51.058;17.040;2023-08-21T00:11:04;25.15;;;15.15;;
63350;SDS011;64988;51.058;17.040;2023-08-21T00:16:31;22.80;;;15.35;;
63350;SDS011;64988;51.058;17.040;2023-08-21T00:21:59;18.75;;;13.68;;
63350;SDS011;64988;51.058;17.040;2023-08-21T00:27:27;23.75;;;14.98;;
63350;SDS011;64988;51.058;17.040;2023-08-21T00:32:54;18.42;;;12.48;;
63350;SDS011;64988;51.058;17.040;2023-08-21T00:38:21;25.08;;;15.35;;
63350;SDS011;64988;51.058;17.040;2023-08-21T00:43:49;19.23;;;14.50;;
63350;SDS011;64988;51.058;17.040;2023-08-21T00:49:17;19.45;;;14.50;;
63350;SDS011;64988;51.058;17.040;2023-08-21T00:54:44;20.40;;;14.80;;
63350;SDS011;64988;51.058;17.040;2023-08-21T01:00:12;20.15;;;15.70;;
63350;SDS011;64988;51.058;17.040;2023-08-21T01:05:41;26.77;;;16.05;;
63350;SDS011;64988;51.058;17.040;2023-08-21T01:11:12;28.45;;;15.85;;
63350;SDS011;64988;51.058;17.040;2023-08-21T01:16:41;29.10;;;16.63;;
63350;SDS011;64988;51.058;17.040;2023-08-21T01:22:10;36.05;;;20.23;;
63350;SDS011;64988;51.058;17.040;2023-08-21T01:27:41;24.58;;;17.00;;
63350;SDS011;64988;51.058;17.040;2023-08-21T01:33:10;24.55;;;15.82;;
63350;SDS011;64988;51.058;17.040;2023-08-21T01:38:39;23.55;;;15.00;;
63350;SDS011;64988;51.058;17.040;2023-08-21T01:44:07;22.25;;;16.48;;
63350;SDS011;64988;51.058;17.040;2023-08-21T01:49:34;24.55;;;17.25;;
63350;SDS011;64988;51.058;17.040;2023-08-21T01:55:01;23.30;;;15.85;;
63350;SDS011;64988;51.058;17.040;2023-08-21T02:00:32;24.52;;;16.13;;
63350;SDS011;64988;51.058;17.040;2023-08-21T02:06:00;26.90;;;17.00;;
63350;SDS011;64988;51.058;17.040;2023-08-21T02:11:29;26.42;;;17.75;;
63350;SDS011;64988;51.058;17.040;2023-08-21T02:16:57;24.92;;;17.75;;
63350;SDS011;64988;51.058;17.040;2023-08-21T02:22:24;26.75;;;19.27;;
63350;SDS011;64988;51.058;17.040;2023-08-21T02:27:52;27.55;;;18.77;;
63350;SDS011;64988;51.058;17.040;2023-08-21T02:33:19;26.85;;;19.55;;
63350;SDS011;64988;51.058;17.040;2023-08-21T02:38:49;28.15;;;20.67;;
63350;SDS011;64988;51.058;17.040;2023-08-21T02:44:16;34.97;;;22.35;;
63350;SDS011;64988;51.058;17.040;2023-08-21T02:49:44;33.28;;;23.27;;
63350;SDS011;64988;51.058;17.040;2023-08-21T02:55:11;27.70;;;17.65;;
63350;SDS011;64988;51.058;17.040;2023-08-21T03:00:39;20.45;;;14.02;;
63350;SDS011;64988;51.058;17.040;2023-08-21T03:06:06;20.83;;;12.98;;
63350;SDS011;64988;51.058;17.040;2023-08-21T03:11:33;9.35;;;4.63;;
63350;SDS011;64988;51.058;17.040;2023-08-21T03:17:00;10.55;;;5.35;;
63350;SDS011;64988;51.058;17.040;2023-08-21T03:22:29;9.13;;;5.38;;
63350;SDS011;64988;51.058;17.040;2023-08-21T03:27:56;6.50;;;5.88;;
63350;SDS011;64988;51.058;17.040;2023-08-21T03:33:22;10.10;;;6.45;;
63350;SDS011;64988;51.058;17.040;2023-08-21T03:38:50;8.55;;;6.47;;
63350;SDS011;64988;51.058;17.040;2023-08-21T03:44:18;10.90;;;7.15;;
63350;SDS011;64988;51.058;17.040;2023-08-21T03:49:45;13.10;;;8.63;;
63350;SDS011;64988;51.058;17.040;2023-08-21T03:55:16;18.80;;;12.55;;
63350;SDS011;64988;51.058;17.040;2023-08-21T04:00:48;23.45;;;17.25;;
63350;SDS011;64988;51.058;17.040;2023-08-21T04:06:16;34.22;;;21.23;;
63350;SDS011;64988;51.058;17.040;2023-08-21T04:11:44;36.33;;;23.05;;
63350;SDS011;64988;51.058;17.040;2023-08-21T04:17:11;33.85;;;21.92;;
63350;SDS011;64988;51.058;17.040;2023-08-21T04:22:38;31.77;;;19.45;;
63350;SDS011;64988;51.058;17.040;2023-08-21T04:28:05;29.58;;;20.08;;
63350;SDS011;64988;51.058;17.040;2023-08-21T04:33:34;29.92;;;17.20;;
63350;SDS011;64988;51.058;17.040;2023-08-21T04:39:02;27.58;;;19.10;;
63350;SDS011;64988;51.058;17.040;2023-08-21T04:44:30;24.05;;;16.90;;
63350;SDS011;64988;51.058;17.040;2023-08-21T04:49:57;25.65;;;16.48;;
63350;SDS011;64988;51.058;17.040;2023-08-21T04:55:25;27.63;;;15.68;;
63350;SDS011;64988;51.058;17.040;2023-08-21T05:00:52;24.33;;;17.30;;
63350;SDS011;64988;51.058;17.040;2023-08-21T05:06:19;29.30;;;18.02;;
63350;SDS011;64988;51.058;17.040;2023-08-21T05:11:47;24.98;;;17.42;;
63350;SDS011;64988;51.058;17.040;2023-08-21T05:17:14;25.73;;;18.33;;
63350;SDS011;64988;51.058;17.040;2023-08-21T05:22:41;25.77;;;18.35;;
63350;SDS011;64988;51.058;17.040;2023-08-21T05:28:10;25.65;;;17.38;;
63350;SDS011;64988;51.058;17.040;2023-08-21T05:33:37;27.35;;;18.25;;
63350;SDS011;64988;51.058;17.040;2023-08-21T05:39:05;25.42;;;17.05;;
63350;SDS011;64988;51.058;17.040;2023-08-21T05:44:34;25.58;;;17.75;;
63350;SDS011;64988;51.058;17.040;2023-08-21T05:50:01;21.35;;;16.63;;
63350;SDS011;64988;51.058;17.040;2023-08-21T05:55:29;23.33;;;16.52;;
63350;SDS011;64988;51.058;17.040;2023-08-21T06:00:56;17.25;;;10.77;;
63350;SDS011;64988;51.058;17.040;2023-08-21T06:06:24;11.40;;;9.63;;
63350;SDS011;64988;51.058;17.040;2023-08-21T06:11:51;11.60;;;8.98;;
63350;SDS011;64988;51.058;17.040;2023-08-21T06:17:18;11.75;;;8.13;;
63350;SDS011;64988;51.058;17.040;2023-08-21T06:22:46;6.53;;;4.63;;
63350;SDS011;64988;51.058;17.040;2023-08-21T06:28:13;7.40;;;3.85;;
63350;SDS011;64988;51.058;17.040;2023-08-21T06:33:40;4.95;;;4.32;;
63350;SDS011;64988;51.058;17.040;2023-08-21T06:39:07;4.90;;;4.18;;
63350;SDS011;64988;51.058;17.040;2023-08-21T06:44:34;5.93;;;4.88;;
63350;SDS011;64988;51.058;17.040;2023-08-21T06:50:01;8.00;;;5.07;;
63350;SDS011;64988;51.058;17.040;2023-08-21T06:55:29;8.23;;;5.47;;
63350;SDS011;64988;51.058;17.040;2023-08-21T07:00:57;9.90;;;5.20;;
63350;SDS011;64988;51.058;17.040;2023-08-21T07:06:24;6.97;;;4.88;;
63350;SDS011;64988;51.058;17.040;2023-08-21T07:11:51;5.72;;;4.95;;
63350;SDS011;64988;51.058;17.040;2023-08-21T07:17:18;4.60;;;4.20;;
63350;SDS011;64988;51.058;17.040;2023-08-21T07:22:45;4.72;;;4.18;;
63350;SDS011;64988;51.058;17.040;2023-08-21T07:28:12;5.72;;;4.50;;
63350;SDS011;64988;51.058;17.040;2023-08-21T07:33:39;7.57;;;5.35;;
63350;SDS011;64988;51.058;17.040;2023-08-21T07:39:06;5.32;;;4.05;;
63350;SDS011;64988;51.058;17.040;2023-08-21T07:44:33;5.25;;;4.03;;
63350;SDS011;64988;51.058;17.040;2023-08-21T07:50:00;6.88;;;3.45;;
63350;SDS011;64988;51.058;17.040;2023-08-21T07:55:27;6.78;;;4.03;;
63350;SDS011;64988;51.058;17.040;2023-08-21T08:00:54;6.07;;;3.85;;
63350;SDS011;64988;51.058;17.040;2023-08-21T08:06:21;4.63;;;4.00;;
63350;SDS011;64988;51.058;17.040;2023-08-21T08:11:50;6.80;;;4.38;;
63350;SDS011;64988;51.058;17.040;2023-08-21T08:17:17;4.13;;;3.05;;
63350;SDS011;64988;51.058;17.040;2023-08-21T08:22:44;4.00;;;3.50;;
63350;SDS011;64988;51.058;17.040;2023-08-21T08:28:11;4.68;;;3.40;;
63350;SDS011;64988;51.058;17.040;2023-08-21T08:33:37;3.28;;;2.97;;
63350;SDS011;64988;51.058;17.040;2023-08-21T08:39:04;3.85;;;3.25;;
63350;SDS011;64988;51.058;17.040;2023-08-21T08:44:32;4.40;;;3.25;;
63350;SDS011;64988;51.058;17.040;2023-08-21T08:50:01;4.50;;;3.05;;
63350;SDS011;64988;51.058;17.040;2023-08-21T08:55:28;3.92;;;2.97;;
63350;SDS011;64988;51.058;17.040;2023-08-21T09:00:56;4.10;;;2.60;;
63350;SDS011;64988;51.058;17.040;2023-08-21T09:06:24;3.95;;;2.22;;
63350;SDS011;64988;51.058;17.040;2023-08-21T09:11:52;3.17;;;1.90;;
63350;SDS011;64988;51.058;17.040;2023-08-21T09:17:22;2.77;;;2.27;;
63350;SDS011;64988;51.058;17.040;2023-08-21T09:22:54;4.63;;;2.47;;
63350;SDS011;64988;51.058;17.040;2023-08-21T09:28:26;5.05;;;2.70;;
63350;SDS011;64988;51.058;17.040;2023-08-21T09:33:56;2.78;;;2.50;;
63350;SDS011;64988;51.058;17.040;2023-08-21T09:39:23;2.63;;;2.43;;
63350;SDS011;64988;51.058;17.040;2023-08-21T09:44:51;4.53;;;3.22;;
63350;SDS011;64988;51.058;17.040;2023-08-21T09:50:18;7.70;;;3.30;;
63350;SDS011;64988;51.058;17.040;2023-08-21T09:55:45;3.60;;;3.17;;
63350;SDS011;64988;51.058;17.040;2023-08-21T10:01:13;5.53;;;3.30;;
63350;SDS011;64988;51.058;17.040;2023-08-21T10:06:42;5.13;;;3.28;;
63350;SDS011;64988;51.058;17.040;2023-08-21T10:12:10;4.72;;;3.80;;
63350;SDS011;64988;51.058;17.040;2023-08-21T10:17:39;3.88;;;3.28;;
63350;SDS011;64988;51.058;17.040;2023-08-21T10:23:07;4.68;;;3.42;;
63350;SDS011;64988;51.058;17.040;2023-08-21T10:28:48;3.90;;;3.60;;
63350;SDS011;64988;51.058;17.040;2023-08-21T10:34:15;4.90;;;3.53;;
63350;SDS011;64988;51.058;17.040;2023-08-21T10:39:55;4.80;;;3.65;;
63350;SDS011;64988;51.058;17.040;2023-08-21T10:45:22;3.95;;;3.63;;
63350;SDS011;64988;51.058;17.040;2023-08-21T10:50:49;5.32;;;3.63;;
63350;SDS011;64988;51.058;17.040;2023-08-21T10:56:17;5.68;;;3.50;;
63350;SDS011;64988;51.058;17.040;2023-08-21T11:01:44;3.00;;;2.40;;
63350;SDS011;64988;51.058;17.040;2023-08-21T11:07:12;3.30;;;3.00;;
63350;SDS011;64988;51.058;17.040;2023-08-21T11:13:14;5.18;;;2.72;;
63350;SDS011;64988;51.058;17.040;2023-08-21T11:18:35;2.95;;;2.50;;
63350;SDS011;64988;51.058;17.040;2023-08-21T11:24:04;5.93;;;3.13;;
63350;SDS011;64988;51.058;17.040;2023-08-21T11:29:41;5.07;;;2.72;;
63350;SDS011;64988;51.058;17.040;2023-08-21T11:35:09;5.28;;;2.20;;
63350;SDS011;64988;51.058;17.040;2023-08-21T11:40:36;2.58;;;2.30;;
63350;SDS011;64988;51.058;17.040;2023-08-21T11:46:04;4.32;;;3.03;;
63350;SDS011;64988;51.058;17.040;2023-08-21T11:51:37;5.32;;;3.33;;
63350;SDS011;64988;51.058;17.040;2023-08-21T11:57:08;5.63;;;3.42;;
63350;SDS011;64988;51.058;17.040;2023-08-21T12:02:35;4.93;;;3.37;;
63350;SDS011;64988;51.058;17.040;2023-08-21T12:08:03;5.68;;;3.45;;
63350;SDS011;64988;51.058;17.040;2023-08-21T12:13:30;3.58;;;3.22;;
63350;SDS011;64988;51.058;17.040;2023-08-21T12:19:01;3.67;;;3.30;;
63350;SDS011;64988;51.058;17.040;2023-08-21T12:24:29;5.68;;;3.97;;
63350;SDS011;64988;51.058;17.040;2023-08-21T12:29:57;4.63;;;3.83;;
63350;SDS011;64988;51.058;17.040;2023-08-21T12:35:24;5.97;;;3.72;;
63350;SDS011;64988;51.058;17.040;2023-08-21T12:40:51;5.95;;;4.47;;
63350;SDS011;64988;51.058;17.040;2023-08-21T12:46:18;4.32;;;3.85;;
63350;SDS011;64988;51.058;17.040;2023-08-21T12:51:46;4.35;;;3.47;;
63350;SDS011;64988;51.058;17.040;2023-08-21T12:57:13;6.07;;;3.78;;
63350;SDS011;64988;51.058;17.040;2023-08-21T13:02:40;4.95;;;4.25;;
63350;SDS011;64988;51.058;17.040;2023-08-21T13:08:08;5.53;;;5.03;;
63350;SDS011;64988;51.058;17.040;2023-08-21T13:13:35;6.50;;;4.78;;
63350;SDS011;64988;51.058;17.040;2023-08-21T13:19:03;5.82;;;4.38;;
63350;SDS011;64988;51.058;17.040;2023-08-21T13:24:29;5.72;;;5.10;;
63350;SDS011;64988;51.058;17.040;2023-08-21T13:29:58;6.70;;;4.50;;
63350;SDS011;64988;51.058;17.040;2023-08-21T13:35:24;9.95;;;4.90;;
63350;SDS011;64988;51.058;17.040;2023-08-21T13:40:51;3.97;;;3.60;;
63350;SDS011;64988;51.058;17.040;2023-08-21T13:46:19;4.90;;;4.40;;
63350;SDS011;64988;51.058;17.040;2023-08-21T13:51:46;5.45;;;4.85;;
63350;SDS011;64988;51.058;17.040;2023-08-21T13:57:13;10.23;;;4.38;;
63350;SDS011;64988;51.058;17.040;2023-08-21T14:02:41;5.35;;;4.50;;
63350;SDS011;64988;51.058;17.040;2023-08-21T14:08:08;5.82;;;3.92;;
63350;SDS011;64988;51.058;17.040;2023-08-21T14:13:36;5.32;;;3.97;;
63350;SDS011;64988;51.058;17.040;2023-08-21T14:19:04;5.28;;;4.43;;
63350;SDS011;64988;51.058;17.040;2023-08-21T14:24:30;5.22;;;4.40;;
63350;SDS011;64988;51.058;17.040;2023-08-21T14:29:59;5.60;;;4.35;;
63350;SDS011;64988;51.058;17.040;2023-08-21T14:35:27;5.13;;;4.60;;
63350;SDS011;64988;51.058;17.040;2023-08-21T14:40:54;5.45;;;4.20;;
63350;SDS011;64988;51.058;17.040;2023-08-21T14:46:21;6.38;;;4.38;;
63350;SDS011;64988;51.058;17.040;2023-08-21T14:52:08;5.97;;;4.82;;
63350;SDS011;64988;51.058;17.040;2023-08-21T14:57:37;6.43;;;5.18;;
63350;SDS011;64988;51.058;17.040;2023-08-21T15:03:04;6.68;;;5.00;;
63350;SDS011;64988;51.058;17.040;2023-08-21T15:08:31;5.78;;;4.93;;
63350;SDS011;64988;51.058;17.040;2023-08-21T15:14:00;6.47;;;4.70;;
63350;SDS011;64988;51.058;17.040;2023-08-21T15:19:27;11.38;;;5.53;;
63350;SDS011;64988;51.058;17.040;2023-08-21T15:24:55;7.25;;;4.68;;
63350;SDS011;64988;51.058;17.040;2023-08-21T15:30:22;4.95;;;4.45;;
63350;SDS011;64988;51.058;17.040;2023-08-21T15:35:49;5.57;;;4.75;;
63350;SDS011;64988;51.058;17.040;2023-08-21T15:41:17;5.88;;;4.68;;
63350;SDS011;64988;51.058;17.040;2023-08-21T15:46:44;6.95;;;5.05;;
63350;SDS011;64988;51.058;17.040;2023-08-21T15:52:12;6.20;;;4.40;;
63350;SDS011;64988;51.058;17.040;2023-08-21T15:57:39;6.15;;;4.20;;
63350;SDS011;64988;51.058;17.040;2023-08-21T16:03:06;5.97;;;4.13;;
63350;SDS011;64988;51.058;17.040;2023-08-21T16:08:34;7.50;;;4.03;;
63350;SDS011;64988;51.058;17.040;2023-08-21T16:14:01;6.30;;;3.88;;
63350;SDS011;64988;51.058;17.040;2023-08-21T16:19:30;4.50;;;3.63;;
63350;SDS011;64988;51.058;17.040;2023-08-21T16:24:57;4.35;;;3.33;;
63350;SDS011;64988;51.058;17.040;2023-08-21T16:30:25;5.93;;;3.45;;
63350;SDS011;64988;51.058;17.040;2023-08-21T16:35:52;5.80;;;3.75;;
63350;SDS011;64988;51.058;17.040;2023-08-21T16:41:19;4.88;;;3.35;;
63350;SDS011;64988;51.058;17.040;2023-08-21T16:46:46;9.85;;;3.83;;
63350;SDS011;64988;51.058;17.040;2023-08-21T16:52:14;8.18;;;3.75;;
63350;SDS011;64988;51.058;17.040;2023-08-21T16:57:41;3.45;;;2.83;;
63350;SDS011;64988;51.058;17.040;2023-08-21T17:03:08;5.22;;;3.25;;
63350;SDS011;64988;51.058;17.040;2023-08-21T17:08:35;4.35;;;3.15;;
63350;SDS011;64988;51.058;17.040;2023-08-21T17:14:02;6.00;;;3.13;;
63350;SDS011;64988;51.058;17.040;2023-08-21T17:19:29;14.07;;;3.40;;
63350;SDS011;64988;51.058;17.040;2023-08-21T17:24:56;4.55;;;3.53;;
63350;SDS011;64988;51.058;17.040;2023-08-21T17:30:39;3.88;;;3.42;;
63350;SDS011;64988;51.058;17.040;2023-08-21T17:36:06;3.90;;;3.60;;
63350;SDS011;64988;51.058;17.040;2023-08-21T17:41:34;3.88;;;3.53;;
63350;SDS011;64988;51.058;17.040;2023-08-21T17:47:01;5.60;;;3.58;;
63350;SDS011;64988;51.058;17.040;2023-08-21T17:52:28;8.00;;;4.35;;
63350;SDS011;64988;51.058;17.040;2023-08-21T17:57:55;4.88;;;4.22;;
63350;SDS011;64988;51.058;17.040;2023-08-21T18:03:25;4.18;;;3.78;;
63350;SDS011;64988;51.058;17.040;2023-08-21T18:08:53;5.80;;;4.10;;
63350;SDS011;64988;51.058;17.040;2023-08-21T18:14:20;6.65;;;3.67;;
63350;SDS011;64988;51.058;17.040;2023-08-21T18:19:47;7.10;;;4.85;;
63350;SDS011;64988;51.058;17.040;2023-08-21T18:25:14;7.70;;;5.10;;
63350;SDS011;64988;51.058;17.040;2023-08-21T18:30:41;4.82;;;4.32;;
63350;SDS011;64988;51.058;17.040;2023-08-21T18:36:08;8.38;;;5.68;;
63350;SDS011;64988;51.058;17.040;2023-08-21T18:41:35;7.22;;;4.47;;
63350;SDS011;64988;51.058;17.040;2023-08-21T18:47:02;8.05;;;5.10;;
63350;SDS011;64988;51.058;17.040;2023-08-21T18:52:29;9.45;;;5.82;;
63350;SDS011;64988;51.058;17.040;2023-08-21T18:57:57;6.57;;;4.80;;
63350;SDS011;64988;51.058;17.040;2023-08-21T19:03:23;11.50;;;5.03;;
63350;SDS011;64988;51.058;17.040;2023-08-21T19:08:50;9.32;;;5.63;;
63350;SDS011;64988;51.058;17.040;2023-08-21T19:14:17;11.30;;;5.25;;
63350;SDS011;64988;51.058;17.040;2023-08-21T19:19:44;14.20;;;5.57;;
63350;SDS011;64988;51.058;17.040;2023-08-21T19:25:12;6.70;;;5.53;;
63350;SDS011;64988;51.058;17.040;2023-08-21T19:30:40;10.52;;;5.38;;
63350;SDS011;64988;51.058;17.040;2023-08-21T19:36:11;9.75;;;5.78;;
63350;SDS011;64988;51.058;17.040;2023-08-21T19:41:39;10.75;;;6.80;;
63350;SDS011;64988;51.058;17.040;2023-08-21T19:47:08;9.48;;;5.57;;
63350;SDS011;64988;51.058;17.040;2023-08-21T19:52:38;13.70;;;7.10;;
63350;SDS011;64988;51.058;17.040;2023-08-21T19:58:07;15.00;;;7.20;;
63350;SDS011;64988;51.058;17.040;2023-08-21T20:03:35;14.50;;;7.53;;
63350;SDS011;64988;51.058;17.040;2023-08-21T20:09:03;14.85;;;7.60;;
63350;SDS011;64988;51.058;17.040;2023-08-21T20:14:32;10.43;;;7.00;;
63350;SDS011;64988;51.058;17.040;2023-08-21T20:20:01;14.75;;;7.20;;
63350;SDS011;64988;51.058;17.040;2023-08-21T20:25:28;15.50;;;7.43;;
63350;SDS011;64988;51.058;17.040;2023-08-21T20:31:02;16.40;;;8.15;;
63350;SDS011;64988;51.058;17.040;2023-08-21T20:36:29;9.75;;;7.22;;
63350;SDS011;64988;51.058;17.040;2023-08-21T20:41:56;14.00;;;7.55;;
63350;SDS011;64988;51.058;17.040;2023-08-21T20:47:25;13.55;;;8.38;;
63350;SDS011;64988;51.058;17.040;2023-08-21T20:52:52;12.07;;;7.68;;
63350;SDS011;64988;51.058;17.040;2023-08-21T20:58:19;17.15;;;9.35;;
63350;SDS011;64988;51.058;17.040;2023-08-21T21:03:47;15.43;;;9.13;;
63350;SDS011;64988;51.058;17.040;2023-08-21T21:09:14;15.02;;;9.10;;
63350;SDS011;64988;51.058;17.040;2023-08-21T21:14:41;14.23;;;8.00;;
63350;SDS011;64988;51.058;17.040;2023-08-21T21:20:09;15.07;;;7.50;;
63350;SDS011;64988;51.058;17.040;2023-08-21T21:25:37;9.10;;;6.70;;
63350;SDS011;64988;51.058;17.040;2023-08-21T21:31:04;15.10;;;7.72;;
63350;SDS011;64988;51.058;17.040;2023-08-21T21:36:31;20.88;;;7.65;;
63350;SDS011;64988;51.058;17.040;2023-08-21T21:41:58;12.02;;;7.40;;
63350;SDS011;64988;51.058;17.040;2023-08-21T21:47:25;11.40;;;7.47;;
63350;SDS011;64988;51.058;17.040;2023-08-21T21:52:52;9.98;;;7.45;;
63350;SDS011;64988;51.058;17.040;2023-08-21T21:58:20;12.95;;;8.23;;
63350;SDS011;64988;51.058;17.040;2023-08-21T22:03:47;15.52;;;8.52;;
63350;SDS011;64988;51.058;17.040;2023-08-21T22:09:14;16.38;;;8.55;;
63350;SDS011;64988;51.058;17.040;2023-08-21T22:14:41;15.10;;;8.10;;
63350;SDS011;64988;51.058;17.040;2023-08-21T22:20:08;16.90;;;9.65;;
63350;SDS011;64988;51.058;17.040;2023-08-21T22:25:36;12.32;;;8.95;;
63350;SDS011;64988;51.058;17.040;2023-08-21T22:31:03;12.05;;;8.98;;
63350;SDS011;64988;51.058;17.040;2023-08-21T22:36:31;15.63;;;9.55;;
63350;SDS011;64988;51.058;17.040;2023-08-21T22:41:58;12.13;;;9.05;;
63350;SDS011;64988;51.058;17.040;2023-08-21T22:47:25;12.15;;;8.93;;
63350;SDS011;64988;51.058;17.040;2023-08-21T22:52:52;10.93;;;8.45;;
63350;SDS011;64988;51.058;17.040;2023-08-21T22:58:19;12.15;;;8.57;;
63350;SDS011;64988;51.058;17.040;2023-08-21T23:03:46;12.35;;;9.27;;
63350;SDS011;64988;51.058;17.040;2023-08-21T23:09:13;13.00;;;8.68;;
63350;SDS011;64988;51.058;17.040;2023-08-21T23:14:42;17.83;;;8.93;;
63350;SDS011;64988;51.058;17.040;2023-08-21T23:20:09;15.23;;;8.50;;
63350;SDS011;64988;51.058;17.040;2023-08-21T23:25:37;14.63;;;8.52;;
63350;SDS011;64988;51.058;17.040;2023-08-21T23:31:04;14.82;;;9.98;;
63350;SDS011;64988;51.058;17.040;2023-08-21T23:36:31;17.77;;;9.57;;
63350;SDS011;64988;51.058;17.040;2023-08-21T23:41:58;16.13;;;9.15;;
63350;SDS011;64988;51.058;17.040;2023-08-21T23:47:25;12.43;;;9.23;;
63350;SDS011;64988;51.058;17.040;2023-08-21T23:52:52;12.65;;;8.18;;
63350;SDS011;64988;51.058;17.040;2023-08-21T23:58:19;16.77;;;10.02;;
